sensor_id;sensor_type;location;lat;lon;timestamp;pressure;altitude;pressure_sealevel;temperature;humidity
81274;BME280;70753;47.908;11.274;2024-01-06T00:01:47;93528.06;;;8.49;67.56
81274;BME280;70753;47.908;11.274;2024-01-06T00:04:13;93520.78;;;8.55;68.11
81274;BME280;70753;47.908;11.274;2024-01-06T00:06:38;93521.41;;;8.38;68.81
81274;BME280;70753;47.908;11.274;2024-01-06T00:09:03;93512.94;;;8.49;68.33
81274;BME280;70753;47.908;11.274;2024-01-06T00:11:29;93514.38;;;8.56;68.01
81274;BME280;70753;47.908;11.274;2024-01-06T00:13:55;93514.44;;;8.64;67.72
81274;BME280;70753;47.908;11.274;2024-01-06T00:16:21;93507.38;;;8.60;67.90
81274;BME280;70753;47.908;11.274;2024-01-06T00:18:47;93510.16;;;8.55;67.59
81274;BME280;70753;47.908;11.274;2024-01-06T00:21:12;93518.00;;;8.60;67.65
81274;BME280;70753;47.908;11.274;2024-01-06T00:23:39;93505.19;;;8.62;67.58
81274;BME280;70753;47.908;11.274;2024-01-06T00:26:05;93515.25;;;8.65;67.33
81274;BME280;70753;47.908;11.274;2024-01-06T00:28:30;93499.41;;;8.60;67.10
81274;BME280;70753;47.908;11.274;2024-01-06T00:30:57;93507.75;;;8.67;67.38
81274;BME280;70753;47.908;11.274;2024-01-06T00:33:23;93511.00;;;8.64;67.43
81274;BME280;70753;47.908;11.274;2024-01-06T00:35:48;93509.31;;;8.68;66.75
81274;BME280;70753;47.908;11.274;2024-01-06T00:38:13;93506.91;;;8.58;67.38
81274;BME280;70753;47.908;11.274;2024-01-06T00:40:39;93495.78;;;8.56;67.48
81274;BME280;70753;47.908;11.274;2024-01-06T00:43:04;93500.03;;;8.57;68.02
81274;BME280;70753;47.908;11.274;2024-01-06T00:45:30;93494.00;;;8.65;67.17
81274;BME280;70753;47.908;11.274;2024-01-06T00:47:56;93499.53;;;8.55;67.58
81274;BME280;70753;47.908;11.274;2024-01-06T00:50:22;93497.22;;;8.39;68.18
81274;BME280;70753;47.908;11.274;2024-01-06T00:52:47;93500.63;;;8.54;67.57
81274;BME280;70753;47.908;11.274;2024-01-06T00:55:13;93502.84;;;8.60;67.20
81274;BME280;70753;47.908;11.274;2024-01-06T00:57:38;93504.63;;;8.65;66.52
81274;BME280;70753;47.908;11.274;2024-01-06T01:00:04;93504.00;;;8.68;65.90
81274;BME280;70753;47.908;11.274;2024-01-06T01:02:30;93503.22;;;8.31;67.33
81274;BME280;70753;47.908;11.274;2024-01-06T01:04:57;93500.16;;;8.38;67.50
81274;BME280;70753;47.908;11.274;2024-01-06T01:07:24;93504.09;;;8.40;67.57
81274;BME280;70753;47.908;11.274;2024-01-06T01:09:50;93507.47;;;8.32;67.82
81274;BME280;70753;47.908;11.274;2024-01-06T01:12:15;93507.16;;;8.20;68.22
81274;BME280;70753;47.908;11.274;2024-01-06T01:14:40;93501.28;;;8.37;67.61
81274;BME280;70753;47.908;11.274;2024-01-06T01:17:06;93505.31;;;8.34;67.48
81274;BME280;70753;47.908;11.274;2024-01-06T01:19:32;93509.91;;;8.29;67.97
81274;BME280;70753;47.908;11.274;2024-01-06T01:21:59;93513.66;;;8.14;67.98
81274;BME280;70753;47.908;11.274;2024-01-06T01:24:24;93518.69;;;8.29;67.52
81274;BME280;70753;47.908;11.274;2024-01-06T01:26:49;93510.25;;;8.14;67.68
81274;BME280;70753;47.908;11.274;2024-01-06T01:29:15;93508.06;;;8.29;67.52
81274;BME280;70753;47.908;11.274;2024-01-06T01:31:40;93514.34;;;8.33;67.08
81274;BME280;70753;47.908;11.274;2024-01-06T01:34:06;93522.13;;;8.30;67.17
81274;BME280;70753;47.908;11.274;2024-01-06T01:36:31;93528.03;;;8.27;66.63
81274;BME280;70753;47.908;11.274;2024-01-06T01:38:58;93523.44;;;8.05;67.29
81274;BME280;70753;47.908;11.274;2024-01-06T01:41:24;93520.09;;;8.00;67.69
81274;BME280;70753;47.908;11.274;2024-01-06T01:43:50;93525.22;;;7.96;67.76
81274;BME280;70753;47.908;11.274;2024-01-06T01:46:16;93528.13;;;7.95;68.16
81274;BME280;70753;47.908;11.274;2024-01-06T01:48:41;93528.34;;;7.98;67.18
81274;BME280;70753;47.908;11.274;2024-01-06T01:51:07;93540.34;;;7.82;68.20
81274;BME280;70753;47.908;11.274;2024-01-06T01:53:34;93533.88;;;7.74;68.13
81274;BME280;70753;47.908;11.274;2024-01-06T01:56:01;93532.19;;;7.65;68.56
81274;BME280;70753;47.908;11.274;2024-01-06T01:58:27;93530.91;;;7.62;68.88
81274;BME280;70753;47.908;11.274;2024-01-06T02:00:53;93530.13;;;7.62;69.16
81274;BME280;70753;47.908;11.274;2024-01-06T02:03:19;93525.50;;;7.67;68.70
81274;BME280;70753;47.908;11.274;2024-01-06T02:05:44;93539.16;;;7.47;69.09
81274;BME280;70753;47.908;11.274;2024-01-06T02:08:10;93530.72;;;7.59;69.13
81274;BME280;70753;47.908;11.274;2024-01-06T02:10:35;93526.41;;;7.63;69.00
81274;BME280;70753;47.908;11.274;2024-01-06T02:13:09;93526.88;;;7.65;68.73
81274;BME280;70753;47.908;11.274;2024-01-06T02:15:35;93532.31;;;7.60;68.85
81274;BME280;70753;47.908;11.274;2024-01-06T02:18:00;93533.38;;;7.59;69.28
81274;BME280;70753;47.908;11.274;2024-01-06T02:20:26;93525.63;;;7.49;69.68
81274;BME280;70753;47.908;11.274;2024-01-06T02:22:54;93528.94;;;7.54;69.55
81274;BME280;70753;47.908;11.274;2024-01-06T02:25:20;93535.50;;;7.30;70.13
81274;BME280;70753;47.908;11.274;2024-01-06T02:27:46;93544.53;;;6.64;72.72
81274;BME280;70753;47.908;11.274;2024-01-06T02:30:11;93548.72;;;6.84;71.97
81274;BME280;70753;47.908;11.274;2024-01-06T02:32:37;93550.78;;;6.36;73.64
81274;BME280;70753;47.908;11.274;2024-01-06T02:35:03;93548.91;;;6.74;72.69
81274;BME280;70753;47.908;11.274;2024-01-06T02:37:28;93550.09;;;7.14;70.95
81274;BME280;70753;47.908;11.274;2024-01-06T02:39:55;93558.16;;;7.09;71.18
81274;BME280;70753;47.908;11.274;2024-01-06T02:42:20;93568.88;;;6.98;71.27
81274;BME280;70753;47.908;11.274;2024-01-06T02:44:46;93565.41;;;6.84;71.75
81274;BME280;70753;47.908;11.274;2024-01-06T02:47:11;93553.34;;;7.11;71.33
81274;BME280;70753;47.908;11.274;2024-01-06T02:49:36;93547.22;;;7.42;70.64
81274;BME280;70753;47.908;11.274;2024-01-06T02:52:02;93556.25;;;7.55;70.38
81274;BME280;70753;47.908;11.274;2024-01-06T02:54:27;93564.16;;;6.26;72.18
81274;BME280;70753;47.908;11.274;2024-01-06T02:56:54;93563.50;;;6.34;73.08
81274;BME280;70753;47.908;11.274;2024-01-06T02:59:19;93568.63;;;7.14;70.19
81274;BME280;70753;47.908;11.274;2024-01-06T03:01:45;93567.44;;;7.38;68.87
81274;BME280;70753;47.908;11.274;2024-01-06T03:04:10;93575.03;;;6.80;70.54
81274;BME280;70753;47.908;11.274;2024-01-06T03:06:36;93583.19;;;6.65;71.23
81274;BME280;70753;47.908;11.274;2024-01-06T03:09:01;93581.53;;;6.69;71.22
81274;BME280;70753;47.908;11.274;2024-01-06T03:11:27;93580.91;;;7.10;69.46
81274;BME280;70753;47.908;11.274;2024-01-06T03:13:54;93575.34;;;7.25;68.85
81274;BME280;70753;47.908;11.274;2024-01-06T03:16:20;93577.94;;;7.11;69.14
81274;BME280;70753;47.908;11.274;2024-01-06T03:18:45;93576.22;;;7.20;67.67
81274;BME280;70753;47.908;11.274;2024-01-06T03:21:16;93579.06;;;7.24;67.50
81274;BME280;70753;47.908;11.274;2024-01-06T03:23:42;93576.16;;;7.07;66.86
81274;BME280;70753;47.908;11.274;2024-01-06T03:26:07;93574.91;;;6.85;68.23
81274;BME280;70753;47.908;11.274;2024-01-06T03:28:33;93570.00;;;6.79;67.69
81274;BME280;70753;47.908;11.274;2024-01-06T03:31:00;93572.50;;;6.70;68.57
81274;BME280;70753;47.908;11.274;2024-01-06T03:33:25;93583.81;;;6.39;69.59
81274;BME280;70753;47.908;11.274;2024-01-06T03:35:51;93578.47;;;6.44;69.71
81274;BME280;70753;47.908;11.274;2024-01-06T03:38:16;93588.19;;;6.48;68.77
81274;BME280;70753;47.908;11.274;2024-01-06T03:40:41;93588.66;;;6.13;70.32
81274;BME280;70753;47.908;11.274;2024-01-06T03:43:07;93588.41;;;6.33;69.78
81274;BME280;70753;47.908;11.274;2024-01-06T03:45:32;93594.91;;;6.41;68.76
81274;BME280;70753;47.908;11.274;2024-01-06T03:47:59;93593.81;;;6.23;68.75
81274;BME280;70753;47.908;11.274;2024-01-06T03:50:25;93598.06;;;6.24;69.26
81274;BME280;70753;47.908;11.274;2024-01-06T03:52:50;93598.56;;;6.26;69.26
81274;BME280;70753;47.908;11.274;2024-01-06T03:55:15;93597.84;;;6.21;68.87
81274;BME280;70753;47.908;11.274;2024-01-06T03:57:41;93599.38;;;6.03;69.19
81274;BME280;70753;47.908;11.274;2024-01-06T04:00:07;93596.47;;;6.23;68.53
81274;BME280;70753;47.908;11.274;2024-01-06T04:02:32;93603.47;;;6.14;68.28
81274;BME280;70753;47.908;11.274;2024-01-06T04:04:59;93600.94;;;6.04;69.48
81274;BME280;70753;47.908;11.274;2024-01-06T04:07:24;93603.03;;;6.07;68.75
81274;BME280;70753;47.908;11.274;2024-01-06T04:09:50;93609.44;;;6.01;69.21
81274;BME280;70753;47.908;11.274;2024-01-06T04:12:15;93607.16;;;5.94;68.71
81274;BME280;70753;47.908;11.274;2024-01-06T04:14:41;93610.28;;;5.96;69.10
81274;BME280;70753;47.908;11.274;2024-01-06T04:17:06;93614.16;;;6.04;68.96
81274;BME280;70753;47.908;11.274;2024-01-06T04:19:31;93608.16;;;5.98;69.78
81274;BME280;70753;47.908;11.274;2024-01-06T04:21:59;93618.25;;;6.15;69.10
81274;BME280;70753;47.908;11.274;2024-01-06T04:24:25;93613.97;;;6.19;68.24
81274;BME280;70753;47.908;11.274;2024-01-06T04:26:51;93616.69;;;6.14;67.74
81274;BME280;70753;47.908;11.274;2024-01-06T04:29:16;93610.97;;;6.07;67.96
81274;BME280;70753;47.908;11.274;2024-01-06T04:31:41;93615.78;;;6.00;69.02
81274;BME280;70753;47.908;11.274;2024-01-06T04:34:07;93617.13;;;6.21;67.00
81274;BME280;70753;47.908;11.274;2024-01-06T04:36:33;93621.91;;;5.72;69.20
81274;BME280;70753;47.908;11.274;2024-01-06T04:39:00;93622.34;;;5.84;68.70
81274;BME280;70753;47.908;11.274;2024-01-06T04:41:25;93636.28;;;5.89;67.69
81274;BME280;70753;47.908;11.274;2024-01-06T04:43:50;93639.38;;;5.68;68.96
81274;BME280;70753;47.908;11.274;2024-01-06T04:46:16;93637.72;;;5.77;68.51
81274;BME280;70753;47.908;11.274;2024-01-06T04:48:42;93646.88;;;5.32;70.91
81274;BME280;70753;47.908;11.274;2024-01-06T04:51:07;93642.19;;;5.53;70.24
81274;BME280;70753;47.908;11.274;2024-01-06T04:53:33;93648.03;;;4.82;72.81
81274;BME280;70753;47.908;11.274;2024-01-06T04:55:59;93644.06;;;5.18;71.22
81274;BME280;70753;47.908;11.274;2024-01-06T04:58:25;93647.13;;;5.30;71.12
81274;BME280;70753;47.908;11.274;2024-01-06T05:00:50;93650.34;;;5.27;71.02
81274;BME280;70753;47.908;11.274;2024-01-06T05:03:16;93655.75;;;4.79;72.51
81274;BME280;70753;47.908;11.274;2024-01-06T05:05:41;93649.06;;;5.54;69.27
81274;BME280;70753;47.908;11.274;2024-01-06T05:08:07;93654.88;;;5.51;69.18
81274;BME280;70753;47.908;11.274;2024-01-06T05:10:32;93653.59;;;5.48;69.28
81274;BME280;70753;47.908;11.274;2024-01-06T05:12:59;93643.81;;;5.49;69.63
81274;BME280;70753;47.908;11.274;2024-01-06T05:15:24;93652.56;;;5.73;69.19
81274;BME280;70753;47.908;11.274;2024-01-06T05:17:50;93653.06;;;5.75;69.47
81274;BME280;70753;47.908;11.274;2024-01-06T05:20:16;93650.34;;;5.85;68.59
81274;BME280;70753;47.908;11.274;2024-01-06T05:22:41;93656.66;;;5.89;67.27
81274;BME280;70753;47.908;11.274;2024-01-06T05:25:07;93660.31;;;5.93;66.87
81274;BME280;70753;47.908;11.274;2024-01-06T05:27:32;93676.28;;;5.78;68.39
81274;BME280;70753;47.908;11.274;2024-01-06T05:29:59;93674.09;;;5.90;67.91
81274;BME280;70753;47.908;11.274;2024-01-06T05:32:25;93676.97;;;5.93;67.64
81274;BME280;70753;47.908;11.274;2024-01-06T05:34:50;93676.53;;;5.81;68.45
81274;BME280;70753;47.908;11.274;2024-01-06T05:37:16;93686.81;;;5.88;67.68
81274;BME280;70753;47.908;11.274;2024-01-06T05:39:41;93688.25;;;5.75;68.63
81274;BME280;70753;47.908;11.274;2024-01-06T05:42:09;93688.16;;;5.80;67.77
81274;BME280;70753;47.908;11.274;2024-01-06T05:44:35;93687.13;;;5.81;67.41
81274;BME280;70753;47.908;11.274;2024-01-06T05:47:02;93692.69;;;5.80;68.43
81274;BME280;70753;47.908;11.274;2024-01-06T05:49:28;93699.41;;;5.00;70.52
81274;BME280;70753;47.908;11.274;2024-01-06T05:51:53;93706.56;;;5.67;68.17
81274;BME280;70753;47.908;11.274;2024-01-06T05:54:19;93710.09;;;5.52;69.28
81274;BME280;70753;47.908;11.274;2024-01-06T05:56:44;93711.28;;;5.70;69.08
81274;BME280;70753;47.908;11.274;2024-01-06T05:59:09;93711.28;;;5.02;71.24
81274;BME280;70753;47.908;11.274;2024-01-06T06:01:35;93712.50;;;5.49;69.41
81274;BME280;70753;47.908;11.274;2024-01-06T06:04:02;93723.06;;;4.76;71.71
81274;BME280;70753;47.908;11.274;2024-01-06T06:06:27;93720.47;;;5.43;68.86
81274;BME280;70753;47.908;11.274;2024-01-06T06:08:53;93726.22;;;5.56;68.75
81274;BME280;70753;47.908;11.274;2024-01-06T06:11:18;93734.66;;;5.58;69.36
81274;BME280;70753;47.908;11.274;2024-01-06T06:13:43;93737.31;;;5.53;69.28
81274;BME280;70753;47.908;11.274;2024-01-06T06:16:09;93738.59;;;5.60;69.10
81274;BME280;70753;47.908;11.274;2024-01-06T06:18:35;93734.16;;;5.84;67.96
81274;BME280;70753;47.908;11.274;2024-01-06T06:21:02;93735.22;;;5.88;68.28
81274;BME280;70753;47.908;11.274;2024-01-06T06:23:28;93735.91;;;5.99;67.73
81274;BME280;70753;47.908;11.274;2024-01-06T06:25:53;93733.41;;;5.84;67.27
81274;BME280;70753;47.908;11.274;2024-01-06T06:28:18;93731.63;;;6.03;67.22
81274;BME280;70753;47.908;11.274;2024-01-06T06:30:44;93735.56;;;6.05;67.19
81274;BME280;70753;47.908;11.274;2024-01-06T06:33:09;93738.16;;;6.10;67.10
81274;BME280;70753;47.908;11.274;2024-01-06T06:35:35;93746.25;;;6.19;66.96
81274;BME280;70753;47.908;11.274;2024-01-06T06:38:02;93746.84;;;5.87;67.69
81274;BME280;70753;47.908;11.274;2024-01-06T06:40:27;93743.44;;;5.82;68.15
81274;BME280;70753;47.908;11.274;2024-01-06T06:42:53;93740.16;;;5.95;67.01
81274;BME280;70753;47.908;11.274;2024-01-06T06:45:19;93753.06;;;5.34;69.15
81274;BME280;70753;47.908;11.274;2024-01-06T06:47:44;93764.97;;;4.14;73.46
81274;BME280;70753;47.908;11.274;2024-01-06T06:50:09;93767.94;;;4.71;72.13
81274;BME280;70753;47.908;11.274;2024-01-06T06:52:35;93767.00;;;5.01;71.55
81274;BME280;70753;47.908;11.274;2024-01-06T06:55:01;93776.22;;;5.03;71.54
81274;BME280;70753;47.908;11.274;2024-01-06T06:57:27;93775.97;;;4.46;73.04
81274;BME280;70753;47.908;11.274;2024-01-06T06:59:52;93773.47;;;5.23;70.30
81274;BME280;70753;47.908;11.274;2024-01-06T07:02:18;93773.00;;;5.11;70.93
81274;BME280;70753;47.908;11.274;2024-01-06T07:04:43;93778.59;;;5.49;69.83
81274;BME280;70753;47.908;11.274;2024-01-06T07:07:08;93774.72;;;5.70;69.59
81274;BME280;70753;47.908;11.274;2024-01-06T07:09:34;93774.66;;;5.02;71.23
81274;BME280;70753;47.908;11.274;2024-01-06T07:12:01;93780.84;;;5.26;70.33
81274;BME280;70753;47.908;11.274;2024-01-06T07:14:26;93781.59;;;4.88;71.70
81274;BME280;70753;47.908;11.274;2024-01-06T07:16:51;93788.69;;;4.29;73.79
81274;BME280;70753;47.908;11.274;2024-01-06T07:19:17;93796.91;;;4.12;74.46
81274;BME280;70753;47.908;11.274;2024-01-06T07:21:42;93789.09;;;4.61;73.31
81274;BME280;70753;47.908;11.274;2024-01-06T07:24:08;93795.56;;;4.05;74.90
81274;BME280;70753;47.908;11.274;2024-01-06T07:26:33;93796.97;;;4.66;73.18
81274;BME280;70753;47.908;11.274;2024-01-06T07:29:00;93798.06;;;4.60;72.81
81274;BME280;70753;47.908;11.274;2024-01-06T07:31:26;93809.31;;;3.56;76.45
81274;BME280;70753;47.908;11.274;2024-01-06T07:33:52;93811.91;;;4.22;74.29
81274;BME280;70753;47.908;11.274;2024-01-06T07:36:18;93806.16;;;4.89;72.02
81274;BME280;70753;47.908;11.274;2024-01-06T07:38:43;93802.47;;;5.33;70.07
81274;BME280;70753;47.908;11.274;2024-01-06T07:41:08;93808.16;;;5.51;69.98
81274;BME280;70753;47.908;11.274;2024-01-06T07:43:34;93818.34;;;5.67;69.11
81274;BME280;70753;47.908;11.274;2024-01-06T07:46:00;93817.94;;;5.50;69.82
81274;BME280;70753;47.908;11.274;2024-01-06T07:48:26;93824.34;;;4.90;71.99
81274;BME280;70753;47.908;11.274;2024-01-06T07:50:51;93827.41;;;5.17;71.36
81274;BME280;70753;47.908;11.274;2024-01-06T07:53:17;93827.56;;;5.36;70.91
81274;BME280;70753;47.908;11.274;2024-01-06T07:55:43;93823.94;;;5.61;70.19
81274;BME280;70753;47.908;11.274;2024-01-06T07:58:08;93830.09;;;5.51;70.26
81274;BME280;70753;47.908;11.274;2024-01-06T08:00:34;93824.41;;;5.34;71.02
81274;BME280;70753;47.908;11.274;2024-01-06T08:03:00;93835.53;;;4.67;72.98
81274;BME280;70753;47.908;11.274;2024-01-06T08:05:27;93830.66;;;4.94;72.28
81274;BME280;70753;47.908;11.274;2024-01-06T08:07:52;93829.38;;;5.40;70.76
81274;BME280;70753;47.908;11.274;2024-01-06T08:10:18;93835.94;;;4.94;71.96
81274;BME280;70753;47.908;11.274;2024-01-06T08:12:44;93834.25;;;4.59;72.93
81274;BME280;70753;47.908;11.274;2024-01-06T08:15:09;93840.38;;;4.25;73.90
81274;BME280;70753;47.908;11.274;2024-01-06T08:17:35;93838.81;;;4.19;75.07
81274;BME280;70753;47.908;11.274;2024-01-06T08:20:02;93848.78;;;4.42;74.52
81274;BME280;70753;47.908;11.274;2024-01-06T08:22:27;93850.34;;;4.53;74.30
81274;BME280;70753;47.908;11.274;2024-01-06T08:24:53;93843.44;;;4.72;73.26
81274;BME280;70753;47.908;11.274;2024-01-06T08:27:18;93851.34;;;4.67;73.79
81274;BME280;70753;47.908;11.274;2024-01-06T08:29:43;93857.56;;;5.01;72.60
81274;BME280;70753;47.908;11.274;2024-01-06T08:32:09;93854.19;;;5.50;70.53
81274;BME280;70753;47.908;11.274;2024-01-06T08:34:34;93851.13;;;4.63;72.95
81274;BME280;70753;47.908;11.274;2024-01-06T08:37:01;93860.78;;;4.93;71.81
81274;BME280;70753;47.908;11.274;2024-01-06T08:39:26;93856.31;;;5.42;70.16
81274;BME280;70753;47.908;11.274;2024-01-06T08:41:52;93856.84;;;5.44;69.17
81274;BME280;70753;47.908;11.274;2024-01-06T08:44:17;93858.53;;;5.25;69.87
81274;BME280;70753;47.908;11.274;2024-01-06T08:46:43;93861.19;;;5.20;70.25
81274;BME280;70753;47.908;11.274;2024-01-06T08:49:08;93862.13;;;5.39;69.69
81274;BME280;70753;47.908;11.274;2024-01-06T08:51:34;93870.66;;;5.26;70.60
81274;BME280;70753;47.908;11.274;2024-01-06T08:54:01;93860.50;;;5.49;70.62
81274;BME280;70753;47.908;11.274;2024-01-06T08:56:26;93870.91;;;5.74;68.30
81274;BME280;70753;47.908;11.274;2024-01-06T08:58:52;93865.63;;;5.74;69.50
81274;BME280;70753;47.908;11.274;2024-01-06T09:01:17;93865.63;;;5.74;68.88
81274;BME280;70753;47.908;11.274;2024-01-06T09:03:42;93872.50;;;5.75;67.86
81274;BME280;70753;47.908;11.274;2024-01-06T09:06:08;93873.03;;;5.77;68.37
81274;BME280;70753;47.908;11.274;2024-01-06T09:08:33;93874.63;;;5.73;68.82
81274;BME280;70753;47.908;11.274;2024-01-06T09:11:00;93870.16;;;5.73;68.01
81274;BME280;70753;47.908;11.274;2024-01-06T09:13:26;93876.16;;;5.40;69.86
81274;BME280;70753;47.908;11.274;2024-01-06T09:15:51;93880.41;;;5.80;69.42
81274;BME280;70753;47.908;11.274;2024-01-06T09:18:17;93884.69;;;5.71;69.74
81274;BME280;70753;47.908;11.274;2024-01-06T09:20:42;93884.13;;;5.74;69.60
81274;BME280;70753;47.908;11.274;2024-01-06T09:23:08;93882.34;;;5.64;68.96
81274;BME280;70753;47.908;11.274;2024-01-06T09:25:33;93888.03;;;5.42;69.31
81274;BME280;70753;47.908;11.274;2024-01-06T09:28:00;93889.94;;;5.76;67.69
81274;BME280;70753;47.908;11.274;2024-01-06T09:30:25;93891.75;;;5.80;68.50
81274;BME280;70753;47.908;11.274;2024-01-06T09:32:51;93891.84;;;5.70;69.30
81274;BME280;70753;47.908;11.274;2024-01-06T09:35:16;93893.88;;;5.83;67.78
81274;BME280;70753;47.908;11.274;2024-01-06T09:37:41;93894.41;;;5.85;68.01
81274;BME280;70753;47.908;11.274;2024-01-06T09:40:11;93901.81;;;5.88;68.13
81274;BME280;70753;47.908;11.274;2024-01-06T09:42:37;93897.66;;;5.67;69.53
81274;BME280;70753;47.908;11.274;2024-01-06T09:45:05;93895.19;;;5.81;68.33
81274;BME280;70753;47.908;11.274;2024-01-06T09:47:33;93896.25;;;5.36;69.95
81274;BME280;70753;47.908;11.274;2024-01-06T09:50:01;93903.88;;;5.48;69.41
81274;BME280;70753;47.908;11.274;2024-01-06T09:52:29;93899.47;;;5.28;70.13
81274;BME280;70753;47.908;11.274;2024-01-06T09:54:58;93899.69;;;5.36;69.95
81274;BME280;70753;47.908;11.274;2024-01-06T09:57:26;93895.44;;;5.40;70.21
81274;BME280;70753;47.908;11.274;2024-01-06T09:59:52;93886.41;;;5.47;70.28
81274;BME280;70753;47.908;11.274;2024-01-06T10:02:19;93879.44;;;5.61;70.23
81274;BME280;70753;47.908;11.274;2024-01-06T10:04:45;93879.34;;;5.81;70.09
81274;BME280;70753;47.908;11.274;2024-01-06T10:07:10;93880.91;;;5.87;69.38
81274;BME280;70753;47.908;11.274;2024-01-06T10:09:35;93879.19;;;6.06;68.66
81274;BME280;70753;47.908;11.274;2024-01-06T10:12:01;93881.81;;;6.06;68.16
81274;BME280;70753;47.908;11.274;2024-01-06T10:14:26;93891.44;;;4.89;71.82
81274;BME280;70753;47.908;11.274;2024-01-06T10:16:52;93884.66;;;5.32;71.57
81274;BME280;70753;47.908;11.274;2024-01-06T10:19:19;93892.19;;;4.90;72.70
81274;BME280;70753;47.908;11.274;2024-01-06T10:21:44;93891.16;;;5.50;70.17
81274;BME280;70753;47.908;11.274;2024-01-06T10:24:10;93894.50;;;5.11;71.31
81274;BME280;70753;47.908;11.274;2024-01-06T10:26:35;93881.03;;;5.67;69.98
81274;BME280;70753;47.908;11.274;2024-01-06T10:29:01;93883.06;;;5.80;70.22
81274;BME280;70753;47.908;11.274;2024-01-06T10:31:27;93877.31;;;6.11;69.21
81274;BME280;70753;47.908;11.274;2024-01-06T10:33:52;93879.03;;;6.26;69.00
81274;BME280;70753;47.908;11.274;2024-01-06T10:36:19;93874.22;;;6.33;68.40
81274;BME280;70753;47.908;11.274;2024-01-06T10:38:45;93875.78;;;6.34;68.70
81274;BME280;70753;47.908;11.274;2024-01-06T10:41:11;93866.94;;;6.15;67.95
81274;BME280;70753;47.908;11.274;2024-01-06T10:43:37;93869.31;;;6.45;67.50
81274;BME280;70753;47.908;11.274;2024-01-06T10:46:03;93873.97;;;6.58;67.41
81274;BME280;70753;47.908;11.274;2024-01-06T10:48:30;93870.41;;;6.44;68.34
81274;BME280;70753;47.908;11.274;2024-01-06T10:50:57;93866.50;;;6.65;67.63
81274;BME280;70753;47.908;11.274;2024-01-06T10:53:26;93871.78;;;6.65;67.33
81274;BME280;70753;47.908;11.274;2024-01-06T10:55:52;93868.53;;;6.73;67.23
81274;BME280;70753;47.908;11.274;2024-01-06T10:58:18;93864.78;;;6.74;65.97
81274;BME280;70753;47.908;11.274;2024-01-06T11:00:44;93866.75;;;6.64;66.09
81274;BME280;70753;47.908;11.274;2024-01-06T11:03:10;93868.47;;;6.21;67.68
81274;BME280;70753;47.908;11.274;2024-01-06T11:05:36;93870.38;;;5.77;69.07
81274;BME280;70753;47.908;11.274;2024-01-06T11:08:03;93876.50;;;5.23;71.22
81274;BME280;70753;47.908;11.274;2024-01-06T11:10:31;93868.38;;;6.02;69.71
81274;BME280;70753;47.908;11.274;2024-01-06T11:13:11;93867.53;;;6.36;67.90
81274;BME280;70753;47.908;11.274;2024-01-06T11:15:42;93865.34;;;6.48;67.19
81274;BME280;70753;47.908;11.274;2024-01-06T11:18:08;93866.97;;;5.22;70.57
81274;BME280;70753;47.908;11.274;2024-01-06T11:20:33;93869.28;;;4.80;73.72
81274;BME280;70753;47.908;11.274;2024-01-06T11:23:18;93874.06;;;5.76;70.64
81274;BME280;70753;47.908;11.274;2024-01-06T11:25:45;93865.38;;;6.14;68.87
81274;BME280;70753;47.908;11.274;2024-01-06T11:28:10;93856.59;;;5.85;69.68
81274;BME280;70753;47.908;11.274;2024-01-06T11:30:36;93853.41;;;5.83;69.60
81274;BME280;70753;47.908;11.274;2024-01-06T11:33:04;93860.41;;;6.07;69.03
81274;BME280;70753;47.908;11.274;2024-01-06T11:35:30;93850.03;;;6.11;69.23
81274;BME280;70753;47.908;11.274;2024-01-06T11:37:56;93858.19;;;4.73;73.93
81274;BME280;70753;47.908;11.274;2024-01-06T11:40:31;93861.94;;;4.57;74.10
81274;BME280;70753;47.908;11.274;2024-01-06T11:43:00;93850.38;;;5.61;70.51
81274;BME280;70753;47.908;11.274;2024-01-06T11:45:26;93841.41;;;5.57;69.95
81274;BME280;70753;47.908;11.274;2024-01-06T11:47:56;93839.16;;;5.84;69.73
81274;BME280;70753;47.908;11.274;2024-01-06T11:50:22;93837.59;;;5.34;71.78
81274;BME280;70753;47.908;11.274;2024-01-06T11:52:48;93832.78;;;5.85;70.11
81274;BME280;70753;47.908;11.274;2024-01-06T11:55:14;93835.69;;;5.44;71.23
81274;BME280;70753;47.908;11.274;2024-01-06T11:57:40;93833.03;;;5.50;71.71
81274;BME280;70753;47.908;11.274;2024-01-06T12:00:08;93827.88;;;6.07;70.00
81274;BME280;70753;47.908;11.274;2024-01-06T12:02:33;93825.53;;;5.62;70.60
81274;BME280;70753;47.908;11.274;2024-01-06T12:04:59;93839.09;;;5.01;72.13
81274;BME280;70753;47.908;11.274;2024-01-06T12:07:24;93836.59;;;5.69;70.90
81274;BME280;70753;47.908;11.274;2024-01-06T12:09:51;93825.19;;;6.12;69.98
81274;BME280;70753;47.908;11.274;2024-01-06T12:12:26;93830.75;;;6.39;68.17
81274;BME280;70753;47.908;11.274;2024-01-06T12:14:52;93829.25;;;6.57;67.16
81274;BME280;70753;47.908;11.274;2024-01-06T12:17:20;93833.00;;;6.74;66.52
81274;BME280;70753;47.908;11.274;2024-01-06T12:19:46;93823.97;;;6.80;66.37
81274;BME280;70753;47.908;11.274;2024-01-06T12:22:14;93830.97;;;6.66;66.64
81274;BME280;70753;47.908;11.274;2024-01-06T12:24:40;93826.38;;;6.77;65.87
81274;BME280;70753;47.908;11.274;2024-01-06T12:27:06;93819.66;;;6.84;65.33
81274;BME280;70753;47.908;11.274;2024-01-06T12:29:38;93831.81;;;6.85;65.27
81274;BME280;70753;47.908;11.274;2024-01-06T12:32:05;93830.19;;;6.89;63.66
81274;BME280;70753;47.908;11.274;2024-01-06T12:34:33;93830.97;;;6.66;64.49
81274;BME280;70753;47.908;11.274;2024-01-06T12:36:58;93828.59;;;6.41;65.25
81274;BME280;70753;47.908;11.274;2024-01-06T12:39:27;93827.59;;;6.37;65.27
81274;BME280;70753;47.908;11.274;2024-01-06T12:41:52;93830.41;;;5.44;68.24
81274;BME280;70753;47.908;11.274;2024-01-06T12:44:18;93829.84;;;5.91;67.51
81274;BME280;70753;47.908;11.274;2024-01-06T12:46:44;93831.50;;;6.16;66.69
81274;BME280;70753;47.908;11.274;2024-01-06T12:49:10;93834.75;;;5.25;69.41
81274;BME280;70753;47.908;11.274;2024-01-06T12:51:37;93831.00;;;5.75;68.32
81274;BME280;70753;47.908;11.274;2024-01-06T12:54:03;93826.69;;;5.89;67.44